KSHN

Details ICAO KSHN
Name SANDERSON FLD
Region United States
Timezone America/Los_Angeles (UTC-8.0)
Plans Departing 8
Arriving 7
Stats Elevation 273 ft / 83 m (AMSL)
Location 47.233559° -123.147544°
Runways 1
Magnetic Variation 15.779° E
Sunrise 2017-12-14 15:53:30 UTC / 2017-12-14 07:53:30 Local
Sunset 2017-12-15 00:24:10 UTC / 2017-12-14 16:24:10 Local
Advertisement - Login to hide

Runways

ID Width Length Bearing (true) Bearing (mag) Surface Threshold Offset Overrun Length
05 100 ft / 30 m 4,994 ft / 1,522 m 67.84° 52.06° Asphalt 0 ft / 0 m 0 ft / 0 m
23 100 ft / 30 m 4,994 ft / 1,522 m 247.85° 232.07° Asphalt 0 ft / 0 m 0 ft / 0 m

Map

Weather


0- 5 10 15 20 25 30 35+ Temperature / ° C

Clouds and Precipitation
Forecast for 2017-12-15 00:00 UTC. Updated 2 hours ago

Ground ~20,000 ft ~40,000 ft Winds

METAR

KSHN 142053Z AUTO 00000KT 10SM CLR 08/04 A3028 RMK AO2 SLP258 T00830039 58017

TAF

Not found

Frequencies

Recorded 119.27 MHz ASOS
Approach 120.10 MHz SEATTLE APP/DEP
Unicom 122.80 MHz CTAF/UNICOM
Warning: Do not use this data for real-world aviation or navigation. No guarantee of current accuracy is given.